sensor_id;sensor_type;location;lat;lon;timestamp;pressure;altitude;pressure_sealevel;temperature;humidity
60355;BME280;46198;51.464;-0.066;2023-05-08T00:02:00;101962.03;;;14.15;100.00
60355;BME280;46198;51.464;-0.066;2023-05-08T00:04:34;101967.94;;;14.12;100.00
60355;BME280;46198;51.464;-0.066;2023-05-08T00:07:02;101954.72;;;14.09;100.00
60355;BME280;46198;51.464;-0.066;2023-05-08T00:09:30;101956.81;;;14.07;100.00
60355;BME280;46198;51.464;-0.066;2023-05-08T00:11:59;101955.13;;;14.06;100.00
60355;BME280;46198;51.464;-0.066;2023-05-08T00:14:27;101957.44;;;14.09;100.00
60355;BME280;46198;51.464;-0.066;2023-05-08T00:16:56;101949.25;;;14.03;100.00
60355;BME280;46198;51.464;-0.066;2023-05-08T00:19:25;101945.91;;;14.01;100.00
60355;BME280;46198;51.464;-0.066;2023-05-08T00:21:53;101944.47;;;13.98;100.00
60355;BME280;46198;51.464;-0.066;2023-05-08T00:24:21;101945.72;;;13.95;100.00
60355;BME280;46198;51.464;-0.066;2023-05-08T00:26:49;101946.56;;;13.96;100.00
60355;BME280;46198;51.464;-0.066;2023-05-08T00:29:17;101948.66;;;13.94;100.00
60355;BME280;46198;51.464;-0.066;2023-05-08T00:31:45;101952.44;;;13.93;100.00
60355;BME280;46198;51.464;-0.066;2023-05-08T00:34:15;101938.59;;;13.88;100.00
60355;BME280;46198;51.464;-0.066;2023-05-08T00:36:43;101937.97;;;13.86;100.00
60355;BME280;46198;51.464;-0.066;2023-05-08T00:39:11;101937.78;;;13.81;100.00
60355;BME280;46198;51.464;-0.066;2023-05-08T00:41:39;101934.66;;;13.77;100.00
60355;BME280;46198;51.464;-0.066;2023-05-08T00:44:08;101929.81;;;13.72;100.00
60355;BME280;46198;51.464;-0.066;2023-05-08T00:46:36;101931.31;;;13.68;100.00
60355;BME280;46198;51.464;-0.066;2023-05-08T00:49:31;101927.75;;;13.61;100.00
60355;BME280;46198;51.464;-0.066;2023-05-08T00:52:02;101922.72;;;13.58;100.00
60355;BME280;46198;51.464;-0.066;2023-05-08T00:54:34;101926.91;;;13.54;100.00
60355;BME280;46198;51.464;-0.066;2023-05-08T00:57:05;101933.88;;;13.50;100.00
60355;BME280;46198;51.464;-0.066;2023-05-08T00:59:34;101923.56;;;13.45;100.00
60355;BME280;46198;51.464;-0.066;2023-05-08T01:02:02;101928.63;;;13.42;100.00
60355;BME280;46198;51.464;-0.066;2023-05-08T01:04:33;101929.88;;;13.39;100.00
60355;BME280;46198;51.464;-0.066;2023-05-08T01:07:02;101927.78;;;13.35;100.00
60355;BME280;46198;51.464;-0.066;2023-05-08T01:09:30;101926.13;;;13.34;100.00
60355;BME280;46198;51.464;-0.066;2023-05-08T01:12:06;101918.78;;;13.27;100.00
60355;BME280;46198;51.464;-0.066;2023-05-08T01:14:43;101917.72;;;13.22;100.00
60355;BME280;46198;51.464;-0.066;2023-05-08T01:17:22;101925.25;;;13.20;100.00
60355;BME280;46198;51.464;-0.066;2023-05-08T01:20:04;101916.03;;;13.14;100.00
60355;BME280;46198;51.464;-0.066;2023-05-08T01:22:52;101920.03;;;13.12;100.00
60355;BME280;46198;51.464;-0.066;2023-05-08T01:26:01;101924.44;;;13.06;100.00
60355;BME280;46198;51.464;-0.066;2023-05-08T01:28:59;101924.00;;;13.02;100.00
60355;BME280;46198;51.464;-0.066;2023-05-08T01:31:46;101917.28;;;12.98;100.00
60355;BME280;46198;51.464;-0.066;2023-05-08T01:34:22;101914.16;;;12.95;100.00
60355;BME280;46198;51.464;-0.066;2023-05-08T01:36:54;101917.28;;;12.92;100.00
60355;BME280;46198;51.464;-0.066;2023-05-08T01:39:31;101915.19;;;12.87;100.00
60355;BME280;46198;51.464;-0.066;2023-05-08T01:42:06;101913.50;;;12.86;100.00
60355;BME280;46198;51.464;-0.066;2023-05-08T01:44:38;101916.63;;;12.83;100.00
60355;BME280;46198;51.464;-0.066;2023-05-08T01:47:10;101918.97;;;12.79;100.00
60355;BME280;46198;51.464;-0.066;2023-05-08T01:49:48;101921.88;;;12.78;100.00
60355;BME280;46198;51.464;-0.066;2023-05-08T01:52:26;101918.72;;;12.74;100.00
60355;BME280;46198;51.464;-0.066;2023-05-08T01:54:58;101911.19;;;12.70;100.00
60355;BME280;46198;51.464;-0.066;2023-05-08T01:57:30;101920.59;;;12.67;100.00
60355;BME280;46198;51.464;-0.066;2023-05-08T02:00:02;101919.34;;;12.63;100.00
60355;BME280;46198;51.464;-0.066;2023-05-08T02:02:36;101934.00;;;12.62;100.00
60355;BME280;46198;51.464;-0.066;2023-05-08T02:05:08;101923.53;;;12.59;100.00
60355;BME280;46198;51.464;-0.066;2023-05-08T02:07:38;101923.94;;;12.56;100.00
60355;BME280;46198;51.464;-0.066;2023-05-08T02:10:09;101930.63;;;12.53;100.00
60355;BME280;46198;51.464;-0.066;2023-05-08T02:12:39;101922.88;;;12.50;100.00
60355;BME280;46198;51.464;-0.066;2023-05-08T02:15:09;101924.13;;;12.48;100.00
60355;BME280;46198;51.464;-0.066;2023-05-08T02:17:39;101928.94;;;12.46;100.00
60355;BME280;46198;51.464;-0.066;2023-05-08T02:20:13;101931.25;;;12.42;100.00
60355;BME280;46198;51.464;-0.066;2023-05-08T02:22:44;101933.31;;;12.40;100.00
60355;BME280;46198;51.464;-0.066;2023-05-08T02:25:14;101930.19;;;12.36;100.00
60355;BME280;46198;51.464;-0.066;2023-05-08T02:27:46;101928.50;;;12.35;100.00
60355;BME280;46198;51.464;-0.066;2023-05-08T02:30:17;101941.50;;;12.33;100.00
60355;BME280;46198;51.464;-0.066;2023-05-08T02:32:48;101933.50;;;12.32;100.00
60355;BME280;46198;51.464;-0.066;2023-05-08T02:35:18;101927.63;;;12.28;100.00
60355;BME280;46198;51.464;-0.066;2023-05-08T02:37:50;101935.16;;;12.26;100.00
60355;BME280;46198;51.464;-0.066;2023-05-08T02:40:21;101927.41;;;12.23;100.00
60355;BME280;46198;51.464;-0.066;2023-05-08T02:46:11;101924.88;;;12.15;100.00
60355;BME280;46198;51.464;-0.066;2023-05-08T02:48:46;101923.19;;;12.14;100.00
60355;BME280;46198;51.464;-0.066;2023-05-08T02:51:24;101917.53;;;12.09;100.00
60355;BME280;46198;51.464;-0.066;2023-05-08T02:54:06;101934.03;;;12.07;100.00
60355;BME280;46198;51.464;-0.066;2023-05-08T02:56:47;101926.50;;;12.03;100.00
60355;BME280;46198;51.464;-0.066;2023-05-08T02:59:29;101916.00;;;12.00;100.00
60355;BME280;46198;51.464;-0.066;2023-05-08T03:02:16;101914.75;;;11.95;100.00
60355;BME280;46198;51.464;-0.066;2023-05-08T03:04:52;101912.44;;;11.92;100.00
60355;BME280;46198;51.464;-0.066;2023-05-08T03:08:14;101916.56;;;11.88;100.00
60355;BME280;46198;51.464;-0.066;2023-05-08T03:10:52;101911.50;;;11.85;100.00
60355;BME280;46198;51.464;-0.066;2023-05-08T03:13:33;101919.03;;;11.83;100.00
60355;BME280;46198;51.464;-0.066;2023-05-08T03:16:20;101921.13;;;11.81;100.00
60355;BME280;46198;51.464;-0.066;2023-05-08T03:19:00;101914.41;;;11.77;100.00
60355;BME280;46198;51.464;-0.066;2023-05-08T03:21:48;101910.19;;;11.74;100.00
60355;BME280;46198;51.464;-0.066;2023-05-08T03:24:38;101915.84;;;11.73;100.00
60355;BME280;46198;51.464;-0.066;2023-05-08T03:27:13;101902.66;;;11.70;100.00
60355;BME280;46198;51.464;-0.066;2023-05-08T03:29:45;101910.19;;;11.68;100.00
60355;BME280;46198;51.464;-0.066;2023-05-08T03:32:38;101905.75;;;11.67;100.00
60355;BME280;46198;51.464;-0.066;2023-05-08T03:38:34;101908.88;;;11.64;100.00
60355;BME280;46198;51.464;-0.066;2023-05-08T03:41:09;101911.00;;;11.62;100.00
60355;BME280;46198;51.464;-0.066;2023-05-08T03:43:48;101913.06;;;11.60;100.00
60355;BME280;46198;51.464;-0.066;2023-05-08T03:46:54;101908.44;;;11.60;100.00
60355;BME280;46198;51.464;-0.066;2023-05-08T03:49:37;101906.97;;;11.58;100.00
60355;BME280;46198;51.464;-0.066;2023-05-08T03:52:31;101899.00;;;11.56;100.00
60355;BME280;46198;51.464;-0.066;2023-05-08T03:55:02;101907.38;;;11.54;100.00
60355;BME280;46198;51.464;-0.066;2023-05-08T03:57:44;101895.00;;;11.52;100.00
60355;BME280;46198;51.464;-0.066;2023-05-08T04:00:35;101898.97;;;11.49;100.00
60355;BME280;46198;51.464;-0.066;2023-05-08T04:04:08;101896.25;;;11.49;100.00
60355;BME280;46198;51.464;-0.066;2023-05-08T04:07:51;101894.97;;;11.45;100.00
60355;BME280;46198;51.464;-0.066;2023-05-08T04:11:01;101894.34;;;11.43;100.00
60355;BME280;46198;51.464;-0.066;2023-05-08T04:13:53;101892.84;;;11.41;100.00
60355;BME280;46198;51.464;-0.066;2023-05-08T04:16:38;101892.03;;;11.40;100.00
60355;BME280;46198;51.464;-0.066;2023-05-08T04:19:37;101888.66;;;11.38;100.00
60355;BME280;46198;51.464;-0.066;2023-05-08T04:22:28;101893.03;;;11.39;100.00
60355;BME280;46198;51.464;-0.066;2023-05-08T04:25:20;101892.22;;;11.39;100.00
60355;BME280;46198;51.464;-0.066;2023-05-08T04:28:24;101886.97;;;11.37;100.00
60355;BME280;46198;51.464;-0.066;2023-05-08T04:35:36;101902.91;;;11.40;100.00
60355;BME280;46198;51.464;-0.066;2023-05-08T04:38:49;101894.53;;;11.42;100.00
60355;BME280;46198;51.464;-0.066;2023-05-08T04:42:19;101897.06;;;11.43;100.00
60355;BME280;46198;51.464;-0.066;2023-05-08T04:45:47;101894.78;;;11.47;100.00
60355;BME280;46198;51.464;-0.066;2023-05-08T04:49:36;101895.41;;;11.49;100.00
60355;BME280;46198;51.464;-0.066;2023-05-08T04:53:17;101890.41;;;11.52;100.00
60355;BME280;46198;51.464;-0.066;2023-05-08T04:56:43;101892.09;;;11.53;100.00
60355;BME280;46198;51.464;-0.066;2023-05-08T04:59:56;101897.16;;;11.57;100.00
60355;BME280;46198;51.464;-0.066;2023-05-08T05:08:18;101895.09;;;11.65;100.00
60355;BME280;46198;51.464;-0.066;2023-05-08T05:12:28;101902.66;;;11.70;100.00
60355;BME280;46198;51.464;-0.066;2023-05-08T05:15:52;101892.63;;;11.77;100.00
60355;BME280;46198;51.464;-0.066;2023-05-08T05:19:01;101905.41;;;11.83;100.00
60355;BME280;46198;51.464;-0.066;2023-05-08T05:22:53;101906.34;;;11.90;100.00
60355;BME280;46198;51.464;-0.066;2023-05-08T05:25:55;101906.16;;;11.98;100.00
60355;BME280;46198;51.464;-0.066;2023-05-08T05:33:46;101907.50;;;12.16;100.00
60355;BME280;46198;51.464;-0.066;2023-05-08T05:36:52;101912.31;;;12.20;100.00
60355;BME280;46198;51.464;-0.066;2023-05-08T05:39:50;101910.88;;;12.31;100.00
60355;BME280;46198;51.464;-0.066;2023-05-08T05:46:35;101916.78;;;12.41;100.00
60355;BME280;46198;51.464;-0.066;2023-05-08T05:49:31;101920.56;;;12.47;100.00
60355;BME280;46198;51.464;-0.066;2023-05-08T05:52:34;101924.56;;;12.51;100.00
60355;BME280;46198;51.464;-0.066;2023-05-08T05:55:41;101920.56;;;12.54;100.00
60355;BME280;46198;51.464;-0.066;2023-05-08T05:58:56;101920.19;;;12.63;100.00
60355;BME280;46198;51.464;-0.066;2023-05-08T06:01:32;101922.06;;;12.63;100.00
60355;BME280;46198;51.464;-0.066;2023-05-08T06:04:06;101925.44;;;12.65;100.00
60355;BME280;46198;51.464;-0.066;2023-05-08T06:06:35;101925.25;;;12.73;100.00
60355;BME280;46198;51.464;-0.066;2023-05-08T06:09:03;101925.63;;;12.70;100.00
60355;BME280;46198;51.464;-0.066;2023-05-08T06:11:46;101933.00;;;12.76;100.00
60355;BME280;46198;51.464;-0.066;2023-05-08T06:14:33;101925.25;;;12.80;100.00
60355;BME280;46198;51.464;-0.066;2023-05-08T06:17:14;101934.88;;;12.82;100.00
60355;BME280;46198;51.464;-0.066;2023-05-08T06:19:51;101935.31;;;12.93;100.00
60355;BME280;46198;51.464;-0.066;2023-05-08T06:22:22;101943.72;;;12.98;100.00
60355;BME280;46198;51.464;-0.066;2023-05-08T06:25:00;101947.28;;;13.05;100.00
60355;BME280;46198;51.464;-0.066;2023-05-08T06:30:48;101938.06;;;13.33;100.00
60355;BME280;46198;51.464;-0.066;2023-05-08T06:33:25;101945.63;;;13.30;100.00
60355;BME280;46198;51.464;-0.066;2023-05-08T06:36:02;101945.84;;;13.36;100.00
60355;BME280;46198;51.464;-0.066;2023-05-08T06:38:31;101947.09;;;13.40;100.00
60355;BME280;46198;51.464;-0.066;2023-05-08T06:41:00;101950.03;;;13.45;100.00
60355;BME280;46198;51.464;-0.066;2023-05-08T06:43:31;101952.97;;;13.50;100.00
60355;BME280;46198;51.464;-0.066;2023-05-08T06:46:02;101952.09;;;13.63;100.00
60355;BME280;46198;51.464;-0.066;2023-05-08T06:48:34;101954.19;;;13.67;100.00
60355;BME280;46198;51.464;-0.066;2023-05-08T06:51:18;101953.78;;;13.64;100.00
60355;BME280;46198;51.464;-0.066;2023-05-08T06:54:24;101956.28;;;13.72;100.00
60355;BME280;46198;51.464;-0.066;2023-05-08T06:56:53;101961.91;;;13.84;100.00
60355;BME280;46198;51.464;-0.066;2023-05-08T06:59:21;101959.81;;;13.86;100.00
60355;BME280;46198;51.464;-0.066;2023-05-08T07:01:50;101959.56;;;14.01;100.00
60355;BME280;46198;51.464;-0.066;2023-05-08T07:04:19;101961.25;;;13.95;100.00
60355;BME280;46198;51.464;-0.066;2023-05-08T07:06:47;101968.59;;;13.94;100.00
60355;BME280;46198;51.464;-0.066;2023-05-08T07:09:15;101969.63;;;14.00;100.00
60355;BME280;46198;51.464;-0.066;2023-05-08T07:11:45;101960.84;;;13.91;100.00
60355;BME280;46198;51.464;-0.066;2023-05-08T07:14:13;101973.47;;;13.92;100.00
60355;BME280;46198;51.464;-0.066;2023-05-08T07:17:07;101966.06;;;14.00;100.00
60355;BME280;46198;51.464;-0.066;2023-05-08T07:19:37;101972.94;;;14.15;100.00
60355;BME280;46198;51.464;-0.066;2023-05-08T07:22:05;101977.78;;;14.20;100.00
60355;BME280;46198;51.464;-0.066;2023-05-08T07:24:33;101968.31;;;14.23;100.00
60355;BME280;46198;51.464;-0.066;2023-05-08T07:27:01;101967.44;;;14.29;100.00
60355;BME280;46198;51.464;-0.066;2023-05-08T07:29:54;101974.19;;;14.26;100.00
60355;BME280;46198;51.464;-0.066;2023-05-08T07:32:23;101976.31;;;14.17;100.00
60355;BME280;46198;51.464;-0.066;2023-05-08T07:34:52;101971.59;;;14.38;100.00
60355;BME280;46198;51.464;-0.066;2023-05-08T07:37:21;101963.56;;;14.50;100.00
60355;BME280;46198;51.464;-0.066;2023-05-08T07:39:49;101954.28;;;14.57;100.00
60355;BME280;46198;51.464;-0.066;2023-05-08T07:42:17;101961.00;;;14.61;100.00
60355;BME280;46198;51.464;-0.066;2023-05-08T07:44:45;101959.50;;;14.66;100.00
60355;BME280;46198;51.464;-0.066;2023-05-08T07:47:21;101956.09;;;14.70;100.00
60355;BME280;46198;51.464;-0.066;2023-05-08T07:49:49;101957.38;;;14.68;100.00
60355;BME280;46198;51.464;-0.066;2023-05-08T07:52:18;101958.47;;;14.60;100.00
60355;BME280;46198;51.464;-0.066;2023-05-08T07:54:46;101958.47;;;14.60;100.00
60355;BME280;46198;51.464;-0.066;2023-05-08T07:57:14;101954.72;;;14.54;100.00
60355;BME280;46198;51.464;-0.066;2023-05-08T07:59:42;101958.75;;;14.45;100.00
60355;BME280;46198;51.464;-0.066;2023-05-08T08:02:10;101955.97;;;14.52;100.00
60355;BME280;46198;51.464;-0.066;2023-05-08T08:04:38;101961.88;;;14.55;100.00
60355;BME280;46198;51.464;-0.066;2023-05-08T08:07:06;101957.69;;;14.46;100.00
60355;BME280;46198;51.464;-0.066;2023-05-08T08:09:36;101956.19;;;14.50;100.00
60355;BME280;46198;51.464;-0.066;2023-05-08T08:12:04;101957.34;;;14.36;100.00
60355;BME280;46198;51.464;-0.066;2023-05-08T08:14:32;101948.50;;;14.34;100.00
60355;BME280;46198;51.464;-0.066;2023-05-08T08:17:00;101953.16;;;14.27;100.00
60355;BME280;46198;51.464;-0.066;2023-05-08T08:19:28;101952.53;;;14.25;100.00
60355;BME280;46198;51.464;-0.066;2023-05-08T08:21:56;101949.72;;;14.45;100.00
60355;BME280;46198;51.464;-0.066;2023-05-08T08:24:24;101955.38;;;14.43;100.00
60355;BME280;46198;51.464;-0.066;2023-05-08T08:26:53;101955.63;;;14.35;100.00
60355;BME280;46198;51.464;-0.066;2023-05-08T08:29:21;101957.22;;;14.49;100.00
60355;BME280;46198;51.464;-0.066;2023-05-08T08:31:50;101955.97;;;14.58;100.00
60355;BME280;46198;51.464;-0.066;2023-05-08T08:34:18;101947.50;;;14.67;100.00
60355;BME280;46198;51.464;-0.066;2023-05-08T08:36:45;101949.19;;;14.68;100.00
60355;BME280;46198;51.464;-0.066;2023-05-08T08:39:14;101945.00;;;14.65;100.00
60355;BME280;46198;51.464;-0.066;2023-05-08T08:41:42;101949.00;;;14.62;100.00
60355;BME280;46198;51.464;-0.066;2023-05-08T08:44:12;101947.16;;;14.56;100.00
60355;BME280;46198;51.464;-0.066;2023-05-08T08:46:43;101933.28;;;14.58;100.00
60355;BME280;46198;51.464;-0.066;2023-05-08T08:49:17;101938.69;;;14.65;100.00
60355;BME280;46198;51.464;-0.066;2023-05-08T08:51:49;101927.31;;;14.68;100.00
60355;BME280;46198;51.464;-0.066;2023-05-08T08:54:20;101936.13;;;14.70;100.00
60355;BME280;46198;51.464;-0.066;2023-05-08T08:56:51;101929.94;;;14.81;100.00
60355;BME280;46198;51.464;-0.066;2023-05-08T08:59:23;101923.94;;;14.97;100.00
60355;BME280;46198;51.464;-0.066;2023-05-08T09:01:54;101933.13;;;15.10;100.00
60355;BME280;46198;51.464;-0.066;2023-05-08T09:04:23;101921.34;;;15.09;100.00
60355;BME280;46198;51.464;-0.066;2023-05-08T09:06:52;101917.06;;;15.38;100.00
60355;BME280;46198;51.464;-0.066;2023-05-08T09:09:21;101912.19;;;15.40;100.00
60355;BME280;46198;51.464;-0.066;2023-05-08T09:11:51;101915.25;;;15.50;100.00
60355;BME280;46198;51.464;-0.066;2023-05-08T09:14:21;101916.34;;;15.68;100.00
60355;BME280;46198;51.464;-0.066;2023-05-08T09:16:52;101917.44;;;15.85;100.00
60355;BME280;46198;51.464;-0.066;2023-05-08T09:19:20;101922.97;;;15.79;100.00
60355;BME280;46198;51.464;-0.066;2023-05-08T09:21:53;101917.75;;;15.77;100.00
60355;BME280;46198;51.464;-0.066;2023-05-08T09:24:21;101913.84;;;15.66;100.00
60355;BME280;46198;51.464;-0.066;2023-05-08T09:26:50;101917.19;;;15.68;100.00
60355;BME280;46198;51.464;-0.066;2023-05-08T09:29:19;101909.19;;;15.67;100.00
60355;BME280;46198;51.464;-0.066;2023-05-08T09:31:50;101917.81;;;15.70;100.00
60355;BME280;46198;51.464;-0.066;2023-05-08T09:34:23;101918.06;;;15.69;100.00
60355;BME280;46198;51.464;-0.066;2023-05-08T09:36:53;101921.38;;;15.71;100.00
60355;BME280;46198;51.464;-0.066;2023-05-08T09:39:23;101927.28;;;15.68;100.00
60355;BME280;46198;51.464;-0.066;2023-05-08T09:41:58;101925.13;;;15.51;100.00
60355;BME280;46198;51.464;-0.066;2023-05-08T09:44:26;101920.94;;;15.49;100.00
60355;BME280;46198;51.464;-0.066;2023-05-08T09:47:09;101914.84;;;15.47;100.00
60355;BME280;46198;51.464;-0.066;2023-05-08T09:49:38;101917.91;;;15.57;100.00
60355;BME280;46198;51.464;-0.066;2023-05-08T09:52:07;101917.75;;;15.52;100.00
60355;BME280;46198;51.464;-0.066;2023-05-08T09:54:35;101914.81;;;15.54;100.00
60355;BME280;46198;51.464;-0.066;2023-05-08T09:57:10;101921.28;;;15.59;100.00
60355;BME280;46198;51.464;-0.066;2023-05-08T09:59:39;101915.72;;;15.47;100.00
60355;BME280;46198;51.464;-0.066;2023-05-08T10:02:11;101916.47;;;15.55;100.00
60355;BME280;46198;51.464;-0.066;2023-05-08T10:04:42;101914.66;;;15.48;100.00
60355;BME280;46198;51.464;-0.066;2023-05-08T10:07:10;101906.75;;;15.59;100.00
60355;BME280;46198;51.464;-0.066;2023-05-08T10:09:38;101907.81;;;15.58;100.00
60355;BME280;46198;51.464;-0.066;2023-05-08T10:12:16;101909.53;;;15.52;100.00
60355;BME280;46198;51.464;-0.066;2023-05-08T10:14:45;101902.78;;;15.55;100.00
60355;BME280;46198;51.464;-0.066;2023-05-08T10:17:19;101902.31;;;15.58;100.00
60355;BME280;46198;51.464;-0.066;2023-05-08T10:19:54;101898.13;;;15.55;100.00
60355;BME280;46198;51.464;-0.066;2023-05-08T10:22:25;101893.97;;;15.52;100.00
60355;BME280;46198;51.464;-0.066;2023-05-08T10:24:55;101891.84;;;15.55;100.00
60355;BME280;46198;51.464;-0.066;2023-05-08T10:27:30;101892.66;;;15.55;100.00
60355;BME280;46198;51.464;-0.066;2023-05-08T10:30:02;101879.53;;;15.45;100.00
60355;BME280;46198;51.464;-0.066;2023-05-08T10:32:37;101879.16;;;15.42;100.00
60355;BME280;46198;51.464;-0.066;2023-05-08T10:35:08;101873.88;;;15.40;100.00
60355;BME280;46198;51.464;-0.066;2023-05-08T10:37:38;101875.13;;;15.44;100.00
60355;BME280;46198;51.464;-0.066;2023-05-08T10:40:08;101863.63;;;15.54;100.00
60355;BME280;46198;51.464;-0.066;2023-05-08T10:42:37;101861.34;;;15.51;100.00
60355;BME280;46198;51.464;-0.066;2023-05-08T10:45:07;101862.88;;;15.65;100.00
60355;BME280;46198;51.464;-0.066;2023-05-08T10:47:45;101872.53;;;15.68;100.00
60355;BME280;46198;51.464;-0.066;2023-05-08T10:50:43;101871.63;;;15.56;100.00
60355;BME280;46198;51.464;-0.066;2023-05-08T10:53:17;101857.94;;;15.74;100.00
60355;BME280;46198;51.464;-0.066;2023-05-08T10:55:50;101871.50;;;15.69;100.00
60355;BME280;46198;51.464;-0.066;2023-05-08T10:58:28;101863.56;;;15.79;100.00
60355;BME280;46198;51.464;-0.066;2023-05-08T11:01:11;101859.00;;;15.91;100.00
60355;BME280;46198;51.464;-0.066;2023-05-08T11:03:42;101857.00;;;15.99;100.00
60355;BME280;46198;51.464;-0.066;2023-05-08T11:06:12;101865.53;;;15.90;100.00
60355;BME280;46198;51.464;-0.066;2023-05-08T11:08:48;101858.38;;;15.89;100.00
60355;BME280;46198;51.464;-0.066;2023-05-08T11:11:27;101865.81;;;16.01;100.00
60355;BME280;46198;51.464;-0.066;2023-05-08T11:14:01;101854.88;;;16.01;100.00
60355;BME280;46198;51.464;-0.066;2023-05-08T11:17:05;101863.34;;;15.99;100.00
60355;BME280;46198;51.464;-0.066;2023-05-08T11:19:36;101865.16;;;16.05;100.00
60355;BME280;46198;51.464;-0.066;2023-05-08T11:22:25;101848.94;;;16.04;100.00
60355;BME280;46198;51.464;-0.066;2023-05-08T11:24:59;101847.72;;;16.00;100.00
60355;BME280;46198;51.464;-0.066;2023-05-08T11:30:54;101849.81;;;15.86;100.00
60355;BME280;46198;51.464;-0.066;2023-05-08T11:33:28;101853.22;;;15.81;100.00
60355;BME280;46198;51.464;-0.066;2023-05-08T11:35:59;101851.56;;;15.80;100.00
60355;BME280;46198;51.464;-0.066;2023-05-08T11:38:32;101860.09;;;15.72;100.00
60355;BME280;46198;51.464;-0.066;2023-05-08T11:41:03;101856.56;;;15.65;100.00
60355;BME280;46198;51.464;-0.066;2023-05-08T11:46:42;101864.16;;;15.63;100.00
60355;BME280;46198;51.464;-0.066;2023-05-08T11:49:13;101860.94;;;15.66;100.00
60355;BME280;46198;51.464;-0.066;2023-05-08T11:51:47;101862.84;;;15.72;100.00
60355;BME280;46198;51.464;-0.066;2023-05-08T11:54:17;101868.44;;;15.59;100.00
60355;BME280;46198;51.464;-0.066;2023-05-08T11:56:46;101866.59;;;15.52;100.00
60355;BME280;46198;51.464;-0.066;2023-05-08T11:59:16;101870.38;;;15.51;100.00
60355;BME280;46198;51.464;-0.066;2023-05-08T12:01:47;101865.06;;;15.57;100.00
60355;BME280;46198;51.464;-0.066;2023-05-08T12:05:01;101872.13;;;15.46;100.00
60355;BME280;46198;51.464;-0.066;2023-05-08T12:07:31;101863.56;;;15.42;100.00
60355;BME280;46198;51.464;-0.066;2023-05-08T12:10:00;101866.97;;;15.38;100.00
60355;BME280;46198;51.464;-0.066;2023-05-08T12:12:37;101864.84;;;15.40;100.00
60355;BME280;46198;51.464;-0.066;2023-05-08T12:15:06;101873.25;;;15.38;100.00
60355;BME280;46198;51.464;-0.066;2023-05-08T12:17:35;101882.56;;;15.37;100.00
60355;BME280;46198;51.464;-0.066;2023-05-08T12:20:11;101873.50;;;15.37;100.00
60355;BME280;46198;51.464;-0.066;2023-05-08T12:22:49;101878.53;;;15.40;100.00
60355;BME280;46198;51.464;-0.066;2023-05-08T12:25:17;101872.81;;;15.23;100.00
60355;BME280;46198;51.464;-0.066;2023-05-08T12:28:11;101870.50;;;15.20;100.00
60355;BME280;46198;51.464;-0.066;2023-05-08T12:30:40;101851.50;;;15.25;100.00
60355;BME280;46198;51.464;-0.066;2023-05-08T12:33:08;101835.50;;;15.28;100.00
60355;BME280;46198;51.464;-0.066;2023-05-08T12:35:37;101839.69;;;15.31;100.00
60355;BME280;46198;51.464;-0.066;2023-05-08T12:38:07;101850.91;;;15.41;100.00
60355;BME280;46198;51.464;-0.066;2023-05-08T12:40:40;101866.13;;;15.37;100.00
60355;BME280;46198;51.464;-0.066;2023-05-08T12:43:08;101861.28;;;15.39;100.00
60355;BME280;46198;51.464;-0.066;2023-05-08T12:45:37;101865.81;;;15.27;100.00
60355;BME280;46198;51.464;-0.066;2023-05-08T12:48:07;101857.69;;;15.20;100.00
60355;BME280;46198;51.464;-0.066;2023-05-08T12:50:37;101856.53;;;15.28;100.00
60355;BME280;46198;51.464;-0.066;2023-05-08T12:53:08;101848.03;;;15.36;100.00
60355;BME280;46198;51.464;-0.066;2023-05-08T12:58:58;101849.72;;;15.37;100.00
60355;BME280;46198;51.464;-0.066;2023-05-08T13:01:26;101834.22;;;15.31;100.00
60355;BME280;46198;51.464;-0.066;2023-05-08T13:03:54;101837.06;;;15.36;100.00
60355;BME280;46198;51.464;-0.066;2023-05-08T13:06:28;101840.44;;;15.38;100.00
60355;BME280;46198;51.464;-0.066;2023-05-08T13:08:57;101839.38;;;15.39;100.00
60355;BME280;46198;51.464;-0.066;2023-05-08T13:11:29;101837.66;;;15.20;100.00
60355;BME280;46198;51.464;-0.066;2023-05-08T13:13:58;101837.63;;;15.26;100.00
60355;BME280;46198;51.464;-0.066;2023-05-08T13:16:26;101838.06;;;15.23;100.00
60355;BME280;46198;51.464;-0.066;2023-05-08T13:18:55;101832.06;;;15.33;100.00
60355;BME280;46198;51.464;-0.066;2023-05-08T13:21:22;101827.81;;;15.37;100.00
60355;BME280;46198;51.464;-0.066;2023-05-08T13:23:53;101822.97;;;15.39;100.00
60355;BME280;46198;51.464;-0.066;2023-05-08T13:26:24;101828.28;;;15.34;100.00
60355;BME280;46198;51.464;-0.066;2023-05-08T13:28:52;101835.88;;;15.50;100.00
60355;BME280;46198;51.464;-0.066;2023-05-08T13:31:22;101829.56;;;15.32;100.00
60355;BME280;46198;51.464;-0.066;2023-05-08T13:33:50;101836.03;;;15.37;100.00
60355;BME280;46198;51.464;-0.066;2023-05-08T13:36:18;101828.34;;;15.46;100.00
60355;BME280;46198;51.464;-0.066;2023-05-08T13:38:46;101815.28;;;15.48;100.00
60355;BME280;46198;51.464;-0.066;2023-05-08T13:41:14;101812.28;;;15.49;100.00
60355;BME280;46198;51.464;-0.066;2023-05-08T13:43:43;101801.50;;;15.55;100.00
60355;BME280;46198;51.464;-0.066;2023-05-08T13:46:12;101803.66;;;15.52;100.00
60355;BME280;46198;51.464;-0.066;2023-05-08T13:48:40;101805.22;;;15.60;100.00
60355;BME280;46198;51.464;-0.066;2023-05-08T13:51:08;101808.06;;;15.72;100.00
60355;BME280;46198;51.464;-0.066;2023-05-08T13:53:36;101817.03;;;15.61;100.00
60355;BME280;46198;51.464;-0.066;2023-05-08T13:56:04;101812.97;;;15.63;100.00
60355;BME280;46198;51.464;-0.066;2023-05-08T13:58:32;101815.03;;;15.68;100.00
60355;BME280;46198;51.464;-0.066;2023-05-08T14:01:01;101795.22;;;15.72;100.00